sensor_id;sensor_type;location;lat;lon;timestamp;pressure;altitude;pressure_sealevel;temperature;humidity
57594;BME280;43423;46.510;6.686;2023-03-30T00:01:14;96470.88;;;13.51;60.73
57594;BME280;43423;46.510;6.686;2023-03-30T00:03:43;96472.13;;;13.44;60.96
57594;BME280;43423;46.510;6.686;2023-03-30T00:06:09;96464.56;;;13.39;61.08
57594;BME280;43423;46.510;6.686;2023-03-30T00:08:36;96458.31;;;13.44;60.84
57594;BME280;43423;46.510;6.686;2023-03-30T00:11:07;96455.03;;;13.40;60.97
57594;BME280;43423;46.510;6.686;2023-03-30T00:13:35;96449.50;;;13.40;60.75
57594;BME280;43423;46.510;6.686;2023-03-30T00:16:02;96453.78;;;13.35;61.48
57594;BME280;43423;46.510;6.686;2023-03-30T00:18:28;96459.78;;;13.28;62.05
57594;BME280;43423;46.510;6.686;2023-03-30T00:20:54;96451.97;;;13.27;61.94
57594;BME280;43423;46.510;6.686;2023-03-30T00:23:21;96458.72;;;13.20;62.23
57594;BME280;43423;46.510;6.686;2023-03-30T00:25:47;96463.44;;;13.14;62.31
57594;BME280;43423;46.510;6.686;2023-03-30T00:28:13;96476.72;;;13.10;62.78
57594;BME280;43423;46.510;6.686;2023-03-30T00:30:38;96462.91;;;13.04;62.94
57594;BME280;43423;46.510;6.686;2023-03-30T00:33:04;96467.66;;;13.04;63.16
57594;BME280;43423;46.510;6.686;2023-03-30T00:35:29;96463.88;;;13.01;62.85
57594;BME280;43423;46.510;6.686;2023-03-30T00:37:56;96468.88;;;13.03;63.01
57594;BME280;43423;46.510;6.686;2023-03-30T00:40:26;96464.63;;;13.02;62.69
57594;BME280;43423;46.510;6.686;2023-03-30T00:43:04;96467.38;;;12.96;63.39
57594;BME280;43423;46.510;6.686;2023-03-30T00:45:31;96462.38;;;13.00;62.97
57594;BME280;43423;46.510;6.686;2023-03-30T00:53:06;96454.03;;;12.89;63.85
57594;BME280;43423;46.510;6.686;2023-03-30T00:55:35;96455.53;;;12.90;63.99
57594;BME280;43423;46.510;6.686;2023-03-30T00:58:02;96455.28;;;12.88;64.62
57594;BME280;43423;46.510;6.686;2023-03-30T01:00:28;96457.25;;;12.82;64.96
57594;BME280;43423;46.510;6.686;2023-03-30T01:02:58;96448.66;;;12.69;66.10
57594;BME280;43423;46.510;6.686;2023-03-30T01:05:25;96442.00;;;12.49;67.07
57594;BME280;43423;46.510;6.686;2023-03-30T01:07:53;96439.97;;;12.44;67.18
57594;BME280;43423;46.510;6.686;2023-03-30T01:10:19;96433.59;;;12.27;68.61
57594;BME280;43423;46.510;6.686;2023-03-30T01:12:45;96432.69;;;12.10;69.38
57594;BME280;43423;46.510;6.686;2023-03-30T01:15:11;96434.22;;;12.11;69.74
57594;BME280;43423;46.510;6.686;2023-03-30T01:17:49;96435.47;;;12.10;70.14
57594;BME280;43423;46.510;6.686;2023-03-30T01:20:45;96442.66;;;12.01;70.32
57594;BME280;43423;46.510;6.686;2023-03-30T01:23:46;96444.59;;;11.95;70.97
57594;BME280;43423;46.510;6.686;2023-03-30T01:26:26;96442.88;;;11.98;70.51
57594;BME280;43423;46.510;6.686;2023-03-30T01:34:34;96434.06;;;11.94;70.47
57594;BME280;43423;46.510;6.686;2023-03-30T01:37:13;96438.78;;;11.88;71.59
57594;BME280;43423;46.510;6.686;2023-03-30T01:50:32;96394.47;;;11.91;70.28
57594;BME280;43423;46.510;6.686;2023-03-30T01:53:21;96414.34;;;12.01;70.93
57594;BME280;43423;46.510;6.686;2023-03-30T01:55:54;96404.97;;;11.87;70.90
57594;BME280;43423;46.510;6.686;2023-03-30T02:00:54;96398.97;;;11.63;72.23
57594;BME280;43423;46.510;6.686;2023-03-30T02:03:25;96395.66;;;11.59;72.93
57594;BME280;43423;46.510;6.686;2023-03-30T02:06:00;96402.41;;;11.58;72.66
57594;BME280;43423;46.510;6.686;2023-03-30T02:08:29;96405.47;;;11.65;74.04
57594;BME280;43423;46.510;6.686;2023-03-30T02:10:58;96393.00;;;11.70;73.68
57594;BME280;43423;46.510;6.686;2023-03-30T02:13:26;96392.28;;;11.75;74.11
57594;BME280;43423;46.510;6.686;2023-03-30T02:15:58;96392.53;;;11.71;73.68
57594;BME280;43423;46.510;6.686;2023-03-30T02:18:24;96388.72;;;11.69;73.68
57594;BME280;43423;46.510;6.686;2023-03-30T02:20:50;96374.66;;;11.61;73.92
57594;BME280;43423;46.510;6.686;2023-03-30T02:23:18;96362.41;;;11.62;73.80
57594;BME280;43423;46.510;6.686;2023-03-30T02:25:44;96369.44;;;11.69;72.73
57594;BME280;43423;46.510;6.686;2023-03-30T02:28:10;96356.00;;;11.77;72.13
57594;BME280;43423;46.510;6.686;2023-03-30T02:30:39;96367.44;;;11.95;69.62
57594;BME280;43423;46.510;6.686;2023-03-30T02:33:09;96360.75;;;12.02;69.49
57594;BME280;43423;46.510;6.686;2023-03-30T02:35:54;96357.03;;;12.11;69.30
57594;BME280;43423;46.510;6.686;2023-03-30T02:38:45;96357.09;;;12.22;68.38
57594;BME280;43423;46.510;6.686;2023-03-30T02:44:14;96355.84;;;12.23;69.05
57594;BME280;43423;46.510;6.686;2023-03-30T02:47:01;96337.09;;;12.27;69.35
57594;BME280;43423;46.510;6.686;2023-03-30T02:55:11;96328.28;;;12.23;69.03
57594;BME280;43423;46.510;6.686;2023-03-30T02:57:50;96337.59;;;12.25;69.67
57594;BME280;43423;46.510;6.686;2023-03-30T03:00:27;96320.56;;;12.27;71.39
57594;BME280;43423;46.510;6.686;2023-03-30T03:02:57;96326.53;;;12.20;70.72
57594;BME280;43423;46.510;6.686;2023-03-30T03:05:25;96316.00;;;12.24;67.52
57594;BME280;43423;46.510;6.686;2023-03-30T03:07:52;96299.28;;;12.39;66.17
57594;BME280;43423;46.510;6.686;2023-03-30T03:10:18;96311.72;;;12.66;64.15
57594;BME280;43423;46.510;6.686;2023-03-30T03:12:44;96311.75;;;12.77;64.18
57594;BME280;43423;46.510;6.686;2023-03-30T03:15:10;96309.22;;;12.79;66.09
57594;BME280;43423;46.510;6.686;2023-03-30T03:17:36;96313.72;;;12.71;65.40
57594;BME280;43423;46.510;6.686;2023-03-30T03:20:04;96314.28;;;12.80;63.98
57594;BME280;43423;46.510;6.686;2023-03-30T03:22:30;96320.06;;;12.82;64.11
57594;BME280;43423;46.510;6.686;2023-03-30T03:24:56;96321.06;;;12.85;64.25
57594;BME280;43423;46.510;6.686;2023-03-30T03:27:22;96313.03;;;12.87;64.90
57594;BME280;43423;46.510;6.686;2023-03-30T03:29:47;96317.50;;;12.79;66.73
57594;BME280;43423;46.510;6.686;2023-03-30T03:32:14;96313.72;;;12.71;67.29
57594;BME280;43423;46.510;6.686;2023-03-30T03:34:40;96308.94;;;12.60;67.61
57594;BME280;43423;46.510;6.686;2023-03-30T03:37:09;96315.66;;;12.53;67.53
57594;BME280;43423;46.510;6.686;2023-03-30T03:39:35;96305.63;;;12.50;68.98
57594;BME280;43423;46.510;6.686;2023-03-30T03:42:03;96309.56;;;12.38;69.19
57594;BME280;43423;46.510;6.686;2023-03-30T03:44:28;96332.63;;;12.35;68.56
57594;BME280;43423;46.510;6.686;2023-03-30T03:46:54;96334.88;;;12.37;70.08
57594;BME280;43423;46.510;6.686;2023-03-30T03:49:19;96333.13;;;12.34;69.81
57594;BME280;43423;46.510;6.686;2023-03-30T03:51:45;96329.06;;;12.29;70.34
57594;BME280;43423;46.510;6.686;2023-03-30T03:54:10;96321.50;;;12.18;69.62
57594;BME280;43423;46.510;6.686;2023-03-30T03:56:36;96329.53;;;12.22;69.72
57594;BME280;43423;46.510;6.686;2023-03-30T03:59:02;96328.56;;;12.25;71.49
57594;BME280;43423;46.510;6.686;2023-03-30T04:01:30;96330.28;;;12.22;71.03
57594;BME280;43423;46.510;6.686;2023-03-30T04:03:56;96321.00;;;12.20;69.99
57594;BME280;43423;46.510;6.686;2023-03-30T04:06:22;96321.22;;;12.16;70.13
57594;BME280;43423;46.510;6.686;2023-03-30T04:08:47;96316.50;;;12.17;71.33
57594;BME280;43423;46.510;6.686;2023-03-30T04:11:13;96330.28;;;12.17;71.19
57594;BME280;43423;46.510;6.686;2023-03-30T04:13:39;96327.72;;;12.13;71.26
57594;BME280;43423;46.510;6.686;2023-03-30T04:16:06;96323.47;;;12.12;70.53
57594;BME280;43423;46.510;6.686;2023-03-30T04:18:32;96326.38;;;11.97;70.92
57594;BME280;43423;46.510;6.686;2023-03-30T04:21:00;96326.06;;;11.90;71.55
57594;BME280;43423;46.510;6.686;2023-03-30T04:23:28;96293.00;;;11.90;73.84
57594;BME280;43423;46.510;6.686;2023-03-30T04:26:05;96270.47;;;11.86;73.87
57594;BME280;43423;46.510;6.686;2023-03-30T04:28:33;96281.47;;;11.86;73.74
57594;BME280;43423;46.510;6.686;2023-03-30T04:31:06;96308.47;;;11.82;73.93
57594;BME280;43423;46.510;6.686;2023-03-30T04:33:38;96331.28;;;11.56;75.20
57594;BME280;43423;46.510;6.686;2023-03-30T04:36:12;96304.28;;;11.60;75.74
57594;BME280;43423;46.510;6.686;2023-03-30T04:38:45;96295.50;;;11.56;75.43
57594;BME280;43423;46.510;6.686;2023-03-30T04:41:28;96290.31;;;11.64;74.99
57594;BME280;43423;46.510;6.686;2023-03-30T04:43:54;96278.50;;;11.58;75.42
57594;BME280;43423;46.510;6.686;2023-03-30T04:46:20;96280.09;;;11.38;75.73
57594;BME280;43423;46.510;6.686;2023-03-30T04:48:45;96272.34;;;11.42;75.97
57594;BME280;43423;46.510;6.686;2023-03-30T04:51:11;96257.66;;;11.51;75.76
57594;BME280;43423;46.510;6.686;2023-03-30T04:53:36;96220.59;;;11.46;75.52
57594;BME280;43423;46.510;6.686;2023-03-30T04:56:02;96244.63;;;11.52;75.54
57594;BME280;43423;46.510;6.686;2023-03-30T04:58:27;96260.91;;;11.50;75.70
57594;BME280;43423;46.510;6.686;2023-03-30T05:00:54;96274.41;;;11.48;76.39
57594;BME280;43423;46.510;6.686;2023-03-30T05:03:20;96278.44;;;11.52;76.09
57594;BME280;43423;46.510;6.686;2023-03-30T05:05:46;96279.03;;;11.62;71.18
57594;BME280;43423;46.510;6.686;2023-03-30T05:08:11;96287.63;;;11.75;71.29
57594;BME280;43423;46.510;6.686;2023-03-30T05:10:37;96287.75;;;11.86;71.13
57594;BME280;43423;46.510;6.686;2023-03-30T05:13:02;96280.25;;;11.92;70.46
57594;BME280;43423;46.510;6.686;2023-03-30T05:15:28;96266.75;;;11.94;71.31
57594;BME280;43423;46.510;6.686;2023-03-30T05:17:53;96241.25;;;12.05;69.57
57594;BME280;43423;46.510;6.686;2023-03-30T05:20:19;96206.47;;;12.13;69.22
57594;BME280;43423;46.510;6.686;2023-03-30T05:22:45;96182.44;;;12.19;68.10
57594;BME280;43423;46.510;6.686;2023-03-30T05:25:12;96168.97;;;12.33;66.98
57594;BME280;43423;46.510;6.686;2023-03-30T05:27:37;96173.75;;;12.43;66.50
57594;BME280;43423;46.510;6.686;2023-03-30T05:30:04;96198.81;;;12.45;67.57
57594;BME280;43423;46.510;6.686;2023-03-30T05:32:29;96233.63;;;12.37;67.91
57594;BME280;43423;46.510;6.686;2023-03-30T05:34:55;96256.16;;;12.30;67.98
57594;BME280;43423;46.510;6.686;2023-03-30T05:37:20;96285.50;;;12.33;69.86
57594;BME280;43423;46.510;6.686;2023-03-30T05:39:46;96263.91;;;12.26;70.48
57594;BME280;43423;46.510;6.686;2023-03-30T05:42:12;96237.56;;;12.19;70.39
57594;BME280;43423;46.510;6.686;2023-03-30T05:44:38;96205.00;;;12.18;71.54
57594;BME280;43423;46.510;6.686;2023-03-30T05:47:03;96203.69;;;12.08;71.62
57594;BME280;43423;46.510;6.686;2023-03-30T05:49:29;96204.19;;;12.06;71.29
57594;BME280;43423;46.510;6.686;2023-03-30T05:51:55;96214.22;;;12.09;71.60
57594;BME280;43423;46.510;6.686;2023-03-30T05:54:21;96239.75;;;12.04;71.50
57594;BME280;43423;46.510;6.686;2023-03-30T05:56:47;96293.44;;;12.20;72.12
57594;BME280;43423;46.510;6.686;2023-03-30T05:59:12;96325.72;;;12.14;71.07
57594;BME280;43423;46.510;6.686;2023-03-30T06:01:38;96327.78;;;12.19;70.88
57594;BME280;43423;46.510;6.686;2023-03-30T06:04:04;96324.47;;;12.15;71.48
57594;BME280;43423;46.510;6.686;2023-03-30T06:06:30;96326.94;;;12.07;73.43
57594;BME280;43423;46.510;6.686;2023-03-30T06:08:56;96341.44;;;12.02;72.80
57594;BME280;43423;46.510;6.686;2023-03-30T06:11:22;96363.31;;;12.11;73.63
57594;BME280;43423;46.510;6.686;2023-03-30T06:13:47;96345.75;;;12.09;72.35
57594;BME280;43423;46.510;6.686;2023-03-30T06:16:13;96374.59;;;12.13;72.23
57594;BME280;43423;46.510;6.686;2023-03-30T06:18:39;96332.28;;;12.22;72.47
57594;BME280;43423;46.510;6.686;2023-03-30T06:21:05;96363.66;;;12.30;69.68
57594;BME280;43423;46.510;6.686;2023-03-30T06:23:32;96351.44;;;12.37;70.41
57594;BME280;43423;46.510;6.686;2023-03-30T06:25:58;96368.00;;;12.42;69.38
57594;BME280;43423;46.510;6.686;2023-03-30T06:28:25;96382.09;;;12.50;71.17
57594;BME280;43423;46.510;6.686;2023-03-30T06:30:51;96370.31;;;12.49;71.51
57594;BME280;43423;46.510;6.686;2023-03-30T06:33:18;96368.03;;;12.48;71.55
57594;BME280;43423;46.510;6.686;2023-03-30T06:35:47;96378.03;;;12.45;70.69
57594;BME280;43423;46.510;6.686;2023-03-30T06:38:14;96375.59;;;12.53;71.31
57594;BME280;43423;46.510;6.686;2023-03-30T06:40:40;96387.16;;;12.57;70.71
57594;BME280;43423;46.510;6.686;2023-03-30T06:43:07;96393.19;;;12.61;69.92
57594;BME280;43423;46.510;6.686;2023-03-30T06:45:32;96401.69;;;12.57;70.60
57594;BME280;43423;46.510;6.686;2023-03-30T06:47:58;96413.00;;;12.60;71.38
57594;BME280;43423;46.510;6.686;2023-03-30T06:50:24;96406.00;;;12.70;70.99
57594;BME280;43423;46.510;6.686;2023-03-30T06:52:50;96416.06;;;12.73;70.74
57594;BME280;43423;46.510;6.686;2023-03-30T06:55:16;96411.81;;;12.77;70.47
57594;BME280;43423;46.510;6.686;2023-03-30T06:57:41;96429.13;;;12.78;70.73
57594;BME280;43423;46.510;6.686;2023-03-30T07:00:08;96432.94;;;12.86;70.67
57594;BME280;43423;46.510;6.686;2023-03-30T07:02:41;96439.00;;;12.90;69.35
57594;BME280;43423;46.510;6.686;2023-03-30T07:05:08;96421.50;;;13.04;68.41
57594;BME280;43423;46.510;6.686;2023-03-30T07:07:34;96439.50;;;12.89;69.01
57594;BME280;43423;46.510;6.686;2023-03-30T07:10:01;96440.97;;;12.84;69.42
57594;BME280;43423;46.510;6.686;2023-03-30T07:12:37;96431.28;;;12.57;69.30
57594;BME280;43423;46.510;6.686;2023-03-30T07:15:03;96437.13;;;12.70;68.96
57594;BME280;43423;46.510;6.686;2023-03-30T07:17:31;96439.41;;;12.77;67.95
57594;BME280;43423;46.510;6.686;2023-03-30T07:19:57;96455.22;;;12.77;67.09
57594;BME280;43423;46.510;6.686;2023-03-30T07:22:22;96445.69;;;12.78;67.97
57594;BME280;43423;46.510;6.686;2023-03-30T07:24:48;96446.69;;;12.75;66.75
57594;BME280;43423;46.510;6.686;2023-03-30T07:27:13;96442.22;;;12.83;67.00
57594;BME280;43423;46.510;6.686;2023-03-30T07:29:40;96451.50;;;12.85;67.22
57594;BME280;43423;46.510;6.686;2023-03-30T07:32:05;96438.72;;;12.88;66.12
57594;BME280;43423;46.510;6.686;2023-03-30T07:34:31;96445.22;;;12.85;67.31
57594;BME280;43423;46.510;6.686;2023-03-30T07:36:58;96449.47;;;12.80;66.42
57594;BME280;43423;46.510;6.686;2023-03-30T07:39:24;96453.00;;;12.86;67.00
57594;BME280;43423;46.510;6.686;2023-03-30T07:41:49;96469.25;;;12.79;66.62
57594;BME280;43423;46.510;6.686;2023-03-30T07:44:15;96476.97;;;12.69;68.45
57594;BME280;43423;46.510;6.686;2023-03-30T07:46:41;96484.69;;;12.60;68.83
57594;BME280;43423;46.510;6.686;2023-03-30T07:49:06;96488.09;;;12.43;68.15
57594;BME280;43423;46.510;6.686;2023-03-30T07:51:32;96497.16;;;12.49;67.79
57594;BME280;43423;46.510;6.686;2023-03-30T07:53:59;96502.16;;;12.45;67.74
57594;BME280;43423;46.510;6.686;2023-03-30T07:56:24;96515.75;;;12.54;67.96
57594;BME280;43423;46.510;6.686;2023-03-30T07:58:50;96511.78;;;12.61;67.09
57594;BME280;43423;46.510;6.686;2023-03-30T08:01:16;96502.44;;;13.33;65.23
57594;BME280;43423;46.510;6.686;2023-03-30T08:03:42;96510.47;;;13.31;64.57
57594;BME280;43423;46.510;6.686;2023-03-30T08:06:10;96511.84;;;13.04;64.54
57594;BME280;43423;46.510;6.686;2023-03-30T08:08:36;96515.00;;;12.91;65.23
57594;BME280;43423;46.510;6.686;2023-03-30T08:11:04;96515.66;;;12.75;65.90
57594;BME280;43423;46.510;6.686;2023-03-30T08:13:30;96512.84;;;12.69;64.27
57594;BME280;43423;46.510;6.686;2023-03-30T08:15:57;96517.88;;;12.71;63.32
57594;BME280;43423;46.510;6.686;2023-03-30T08:18:23;96531.72;;;12.76;63.42
57594;BME280;43423;46.510;6.686;2023-03-30T08:20:50;96525.38;;;12.65;64.37
57594;BME280;43423;46.510;6.686;2023-03-30T08:23:16;96517.09;;;12.65;62.86
57594;BME280;43423;46.510;6.686;2023-03-30T08:25:41;96523.38;;;12.65;64.57
57594;BME280;43423;46.510;6.686;2023-03-30T08:28:07;96527.53;;;12.55;63.35
57594;BME280;43423;46.510;6.686;2023-03-30T08:30:33;96527.72;;;12.46;63.50
57594;BME280;43423;46.510;6.686;2023-03-30T08:32:58;96536.00;;;12.46;64.53
57594;BME280;43423;46.510;6.686;2023-03-30T08:35:25;96538.00;;;12.45;68.47
57594;BME280;43423;46.510;6.686;2023-03-30T08:37:51;96536.69;;;12.09;70.71
57594;BME280;43423;46.510;6.686;2023-03-30T08:40:16;96550.50;;;11.89;73.09
57594;BME280;43423;46.510;6.686;2023-03-30T08:43:20;96547.59;;;11.78;73.05
57594;BME280;43423;46.510;6.686;2023-03-30T08:45:46;96545.25;;;11.70;74.00
57594;BME280;43423;46.510;6.686;2023-03-30T08:48:21;96542.97;;;11.69;72.44
57594;BME280;43423;46.510;6.686;2023-03-30T08:51:16;96549.34;;;11.55;73.80
57594;BME280;43423;46.510;6.686;2023-03-30T08:53:43;96560.13;;;11.58;73.50
57594;BME280;43423;46.510;6.686;2023-03-30T08:56:19;96567.22;;;11.65;74.18
57594;BME280;43423;46.510;6.686;2023-03-30T09:01:31;96573.13;;;11.37;73.81
57594;BME280;43423;46.510;6.686;2023-03-30T09:04:19;96567.34;;;11.35;77.04
57594;BME280;43423;46.510;6.686;2023-03-30T09:06:53;96564.78;;;11.11;75.69
57594;BME280;43423;46.510;6.686;2023-03-30T09:09:26;96564.50;;;11.09;77.15
57594;BME280;43423;46.510;6.686;2023-03-30T09:12:04;96574.72;;;11.24;75.10
57594;BME280;43423;46.510;6.686;2023-03-30T09:14:41;96586.97;;;11.23;72.47
57594;BME280;43423;46.510;6.686;2023-03-30T09:17:20;96572.97;;;11.26;73.20
57594;BME280;43423;46.510;6.686;2023-03-30T09:19:55;96580.91;;;11.39;73.26
57594;BME280;43423;46.510;6.686;2023-03-30T09:22:44;96590.78;;;11.45;73.37
57594;BME280;43423;46.510;6.686;2023-03-30T09:25:25;96583.28;;;11.46;74.03
57594;BME280;43423;46.510;6.686;2023-03-30T09:30:40;96599.44;;;11.59;70.65
57594;BME280;43423;46.510;6.686;2023-03-30T09:33:23;96593.31;;;11.69;73.29
57594;BME280;43423;46.510;6.686;2023-03-30T09:36:12;96606.00;;;11.82;71.49
57594;BME280;43423;46.510;6.686;2023-03-30T09:38:39;96598.34;;;11.91;73.64
57594;BME280;43423;46.510;6.686;2023-03-30T09:41:27;96609.78;;;11.84;71.70
57594;BME280;43423;46.510;6.686;2023-03-30T09:43:57;96604.56;;;11.86;70.53
57594;BME280;43423;46.510;6.686;2023-03-30T09:46:24;96607.19;;;11.95;69.89
57594;BME280;43423;46.510;6.686;2023-03-30T09:48:50;96606.34;;;11.89;68.52
57594;BME280;43423;46.510;6.686;2023-03-30T09:53:44;96617.84;;;11.88;68.33
57594;BME280;43423;46.510;6.686;2023-03-30T09:56:26;96610.63;;;11.90;67.47
57594;BME280;43423;46.510;6.686;2023-03-30T09:58:52;96625.16;;;11.91;68.35
57594;BME280;43423;46.510;6.686;2023-03-30T10:01:19;96619.38;;;11.89;67.18
57594;BME280;43423;46.510;6.686;2023-03-30T10:04:04;96614.09;;;11.85;67.88
57594;BME280;43423;46.510;6.686;2023-03-30T10:06:36;96615.03;;;11.82;65.32
57594;BME280;43423;46.510;6.686;2023-03-30T10:09:02;96621.91;;;11.92;66.22
57594;BME280;43423;46.510;6.686;2023-03-30T10:11:43;96619.22;;;11.98;65.92
57594;BME280;43423;46.510;6.686;2023-03-30T10:14:31;96609.78;;;12.05;66.70
57594;BME280;43423;46.510;6.686;2023-03-30T10:16:58;96617.72;;;11.97;65.19
57594;BME280;43423;46.510;6.686;2023-03-30T10:19:25;96624.81;;;12.04;62.68
57594;BME280;43423;46.510;6.686;2023-03-30T10:21:58;96625.72;;;11.95;65.08
57594;BME280;43423;46.510;6.686;2023-03-30T10:24:29;96631.16;;;11.89;67.95
57594;BME280;43423;46.510;6.686;2023-03-30T10:27:24;96626.53;;;11.81;69.16
57594;BME280;43423;46.510;6.686;2023-03-30T10:29:45;96622.84;;;11.69;67.58
57594;BME280;43423;46.510;6.686;2023-03-30T10:32:17;96628.66;;;11.71;68.97
57594;BME280;43423;46.510;6.686;2023-03-30T10:34:51;96619.56;;;11.65;69.89
57594;BME280;43423;46.510;6.686;2023-03-30T10:37:32;96625.13;;;11.70;69.08
57594;BME280;43423;46.510;6.686;2023-03-30T10:40:01;96625.19;;;11.76;67.91
57594;BME280;43423;46.510;6.686;2023-03-30T10:42:34;96630.25;;;11.78;67.75
57594;BME280;43423;46.510;6.686;2023-03-30T10:45:03;96637.06;;;11.82;68.97
57594;BME280;43423;46.510;6.686;2023-03-30T10:47:58;96636.88;;;11.86;68.68
57594;BME280;43423;46.510;6.686;2023-03-30T10:50:43;96630.47;;;11.94;70.04
57594;BME280;43423;46.510;6.686;2023-03-30T10:53:31;96625.50;;;11.98;67.33
57594;BME280;43423;46.510;6.686;2023-03-30T11:05:01;96633.59;;;12.08;66.92
57594;BME280;43423;46.510;6.686;2023-03-30T11:07:33;96624.59;;;12.07;66.84
57594;BME280;43423;46.510;6.686;2023-03-30T11:10:09;96629.19;;;12.16;66.18
57594;BME280;43423;46.510;6.686;2023-03-30T11:12:40;96629.34;;;12.07;65.89
57594;BME280;43423;46.510;6.686;2023-03-30T11:15:16;96626.06;;;12.02;67.55
57594;BME280;43423;46.510;6.686;2023-03-30T11:17:52;96627.63;;;12.09;65.41
57594;BME280;43423;46.510;6.686;2023-03-30T11:20:25;96631.16;;;12.10;66.96
57594;BME280;43423;46.510;6.686;2023-03-30T11:23:00;96633.59;;;12.08;66.35
57594;BME280;43423;46.510;6.686;2023-03-30T11:25:35;96633.41;;;12.11;66.76
57594;BME280;43423;46.510;6.686;2023-03-30T11:31:27;96651.13;;;12.05;66.89
57594;BME280;43423;46.510;6.686;2023-03-30T11:34:04;96643.59;;;12.05;66.09
57594;BME280;43423;46.510;6.686;2023-03-30T11:36:40;96637.13;;;12.08;66.39
57594;BME280;43423;46.510;6.686;2023-03-30T11:39:14;96640.66;;;12.09;68.65
57594;BME280;43423;46.510;6.686;2023-03-30T11:41:48;96642.38;;;12.06;67.23
57594;BME280;43423;46.510;6.686;2023-03-30T11:44:16;96653.19;;;12.10;68.93
57594;BME280;43423;46.510;6.686;2023-03-30T11:52:24;96635.19;;;12.14;67.12
57594;BME280;43423;46.510;6.686;2023-03-30T11:55:25;96630.56;;;12.26;66.90
57594;BME280;43423;46.510;6.686;2023-03-30T12:03:40;96630.22;;;12.70;67.54
57594;BME280;43423;46.510;6.686;2023-03-30T12:17:23;96610.13;;;12.64;66.19
57594;BME280;43423;46.510;6.686;2023-03-30T12:22:24;96603.94;;;12.75;66.56
57594;BME280;43423;46.510;6.686;2023-03-30T12:25:01;96601.72;;;12.79;64.84
57594;BME280;43423;46.510;6.686;2023-03-30T12:27:28;96609.81;;;12.88;67.65
57594;BME280;43423;46.510;6.686;2023-03-30T12:30:12;96599.09;;;12.96;63.73
57594;BME280;43423;46.510;6.686;2023-03-30T12:32:55;96608.91;;;13.02;63.97
57594;BME280;43423;46.510;6.686;2023-03-30T12:35:45;96616.94;;;13.00;62.50
57594;BME280;43423;46.510;6.686;2023-03-30T12:38:16;96624.19;;;12.98;63.00
57594;BME280;43423;46.510;6.686;2023-03-30T12:40:46;96626.91;;;12.92;62.49
57594;BME280;43423;46.510;6.686;2023-03-30T12:43:46;96618.63;;;12.92;65.42
57594;BME280;43423;46.510;6.686;2023-03-30T12:46:19;96640.94;;;12.89;63.45
57594;BME280;43423;46.510;6.686;2023-03-30T12:49:06;96630.06;;;12.79;63.20
57594;BME280;43423;46.510;6.686;2023-03-30T12:51:56;96635.38;;;12.83;63.78
57594;BME280;43423;46.510;6.686;2023-03-30T12:57:17;96633.59;;;12.80;63.40
57594;BME280;43423;46.510;6.686;2023-03-30T13:00:19;96632.28;;;12.75;65.42
57594;BME280;43423;46.510;6.686;2023-03-30T13:02:58;96629.28;;;12.79;66.42
57594;BME280;43423;46.510;6.686;2023-03-30T13:05:33;96621.25;;;12.75;66.57
57594;BME280;43423;46.510;6.686;2023-03-30T13:08:07;96615.25;;;12.77;69.08
57594;BME280;43423;46.510;6.686;2023-03-30T13:10:39;96612.53;;;12.82;67.77
57594;BME280;43423;46.510;6.686;2023-03-30T13:13:16;96606.06;;;12.91;67.16
57594;BME280;43423;46.510;6.686;2023-03-30T13:15:53;96587.06;;;12.99;65.23
57594;BME280;43423;46.510;6.686;2023-03-30T13:18:31;96596.66;;;13.09;64.83
57594;BME280;43423;46.510;6.686;2023-03-30T13:21:15;96593.28;;;13.25;63.89
57594;BME280;43423;46.510;6.686;2023-03-30T13:23:43;96587.59;;;13.40;63.22
57594;BME280;43423;46.510;6.686;2023-03-30T13:26:23;96592.91;;;13.44;61.64
57594;BME280;43423;46.510;6.686;2023-03-30T13:29:02;96582.66;;;13.55;62.80
57594;BME280;43423;46.510;6.686;2023-03-30T13:31:39;96584.69;;;13.60;59.52
57594;BME280;43423;46.510;6.686;2023-03-30T13:36:45;96585.50;;;13.72;61.96
57594;BME280;43423;46.510;6.686;2023-03-30T13:39:21;96583.75;;;13.75;60.90
57594;BME280;43423;46.510;6.686;2023-03-30T13:42:16;96586.28;;;13.78;60.86
57594;BME280;43423;46.510;6.686;2023-03-30T13:44:56;96583.75;;;13.75;59.92
57594;BME280;43423;46.510;6.686;2023-03-30T13:50:26;96573.69;;;13.72;62.12
57594;BME280;43423;46.510;6.686;2023-03-30T13:52:54;96564.66;;;13.77;59.92
57594;BME280;43423;46.510;6.686;2023-03-30T13:55:27;96566.69;;;13.82;60.54
57594;BME280;43423;46.510;6.686;2023-03-30T13:58:04;96576.69;;;13.74;61.13
57594;BME280;43423;46.510;6.686;2023-03-30T14:00:43;96562.38;;;13.69;61.17
57594;BME280;43423;46.510;6.686;2023-03-30T14:05:53;96567.16;;;13.69;60.92
57594;BME280;43423;46.510;6.686;2023-03-30T14:08:19;96557.34;;;13.68;61.10
57594;BME280;43423;46.510;6.686;2023-03-30T14:10:46;96561.41;;;13.78;63.09
57594;BME280;43423;46.510;6.686;2023-03-30T14:13:12;96573.22;;;13.79;61.58
57594;BME280;43423;46.510;6.686;2023-03-30T14:15:39;96567.19;;;13.80;61.29
57594;BME280;43423;46.510;6.686;2023-03-30T14:18:05;96555.63;;;13.82;62.09
57594;BME280;43423;46.510;6.686;2023-03-30T14:25:44;96564.47;;;13.91;63.74
57594;BME280;43423;46.510;6.686;2023-03-30T14:28:13;96562.19;;;13.90;62.55
57594;BME280;43423;46.510;6.686;2023-03-30T14:31:10;96565.97;;;13.92;60.95
57594;BME280;43423;46.510;6.686;2023-03-30T14:33:37;96559.56;;;13.58;66.82
57594;BME280;43423;46.510;6.686;2023-03-30T14:36:05;96549.19;;;13.42;67.42
57594;BME280;43423;46.510;6.686;2023-03-30T14:38:38;96554.44;;;13.40;68.31
57594;BME280;43423;46.510;6.686;2023-03-30T14:41:17;96541.84;;;13.28;68.56
57594;BME280;43423;46.510;6.686;2023-03-30T14:44:10;96545.34;;;13.23;69.02
57594;BME280;43423;46.510;6.686;2023-03-30T14:46:40;96540.25;;;13.16;71.82
57594;BME280;43423;46.510;6.686;2023-03-30T14:49:13;96547.59;;;13.24;70.99
57594;BME280;43423;46.510;6.686;2023-03-30T14:51:42;96536.59;;;13.30;70.54
57594;BME280;43423;46.510;6.686;2023-03-30T14:54:14;96539.34;;;13.30;73.36